Simsboro, Louisiana
Current Conditions -  °F | °C
As of 7:35 AM on Monday 24 Nov 2014 (Local Time) from KRSN Reporting Station
Clear Clear  
Wind Chill: 48°   Ceiling: Unl
Heat Index: 48°   Visibility: 10mi
Dew Point: 42°   Wind: 3mph
Humidity: 77%   Direction: 320°NW
Pressure: 29.93"   Gusts: NA
Location:  32.53°N, 92.79°W
Report Text: KRSN 241335Z AUTO 32003KT 10SM CLR 09/05 A2993 RMK AO2 P0001 T00910053
Loading
Personal Weather Stations






























Interactive Weather Map New forecast layout! Learn more

10-Day Weather Forecast

Advertisements
Track Severe Weather on mobile